createdAt,value
2022-09-21T00:01:16.374Z,15.13
2022-09-21T00:03:43.825Z,11.07
2022-09-21T00:06:18.172Z,13.38
2022-09-21T00:08:46.049Z,27.27
2022-09-21T00:11:15.347Z,20.73
2022-09-21T00:13:42.324Z,27.90
2022-09-21T00:16:09.411Z,20.25
2022-09-21T00:18:36.450Z,23.90
2022-09-21T00:21:12.058Z,26.70
2022-09-21T00:23:39.544Z,18.85
2022-09-21T00:26:26.766Z,22.67
2022-09-21T00:28:55.172Z,22.25
2022-09-21T00:31:22.595Z,20.88
2022-09-21T00:33:51.203Z,18.17
2022-09-21T00:36:20.524Z,15.77
2022-09-21T00:38:52.533Z,15.07
2022-09-21T00:41:19.421Z,15.30
2022-09-21T00:44:06.795Z,18.73
2022-09-21T00:46:35.585Z,17.60
2022-09-21T00:49:02.130Z,16.05
2022-09-21T00:51:29.497Z,18.88
2022-09-21T00:54:01.678Z,16.42
2022-09-21T00:56:29.840Z,17.17
2022-09-21T00:58:57.328Z,17.02
2022-09-21T01:01:24.932Z,20.00
2022-09-21T01:03:53.490Z,18.48
2022-09-21T01:06:21.472Z,20.42
2022-09-21T01:08:54.713Z,12.52
2022-09-21T01:11:34.357Z,13.30
2022-09-21T01:14:03.868Z,16.42
2022-09-21T01:16:36.408Z,15.55
2022-09-21T01:19:02.909Z,15.90
2022-09-21T01:21:36.428Z,15.10
2022-09-21T01:24:15.448Z,17.42
2022-09-21T01:27:04.645Z,17.65
2022-09-21T01:29:36.006Z,18.80
2022-09-21T01:32:20.755Z,18.80
2022-09-21T01:34:54.473Z,22.40
2022-09-21T01:37:31.151Z,21.88
2022-09-21T01:40:01.679Z,22.58
2022-09-21T01:42:31.126Z,18.45
2022-09-21T01:45:00.859Z,22.30
2022-09-21T01:47:31.566Z,17.75
2022-09-21T01:50:01.548Z,18.65
2022-09-21T01:52:57.272Z,18.52
2022-09-21T01:55:28.283Z,37.40
2022-09-21T01:58:11.979Z,48.72
2022-09-21T02:00:40.226Z,48.60
2022-09-21T02:03:14.936Z,109.00
2022-09-21T02:05:42.570Z,148.43
2022-09-21T02:08:10.710Z,112.55
2022-09-21T02:10:42.886Z,59.75
2022-09-21T02:13:09.688Z,91.65
2022-09-21T02:15:43.888Z,85.10
2022-09-21T02:18:44.659Z,58.47
2022-09-21T02:21:23.060Z,24.60
2022-09-21T02:24:08.127Z,30.92
2022-09-21T02:26:42.399Z,19.20
2022-09-21T02:29:25.708Z,12.50
2022-09-21T02:32:01.070Z,12.55
2022-09-21T02:34:49.426Z,14.90
2022-09-21T02:37:37.317Z,21.25
2022-09-21T02:40:13.547Z,21.52
2022-09-21T02:42:42.930Z,19.60
2022-09-21T02:45:15.970Z,19.88
2022-09-21T02:47:48.363Z,24.88
2022-09-21T02:50:27.152Z,54.03
2022-09-21T02:52:54.886Z,187.45
2022-09-21T02:55:22.806Z,30.42
2022-09-21T02:57:50.311Z,16.92
2022-09-21T03:00:17.325Z,23.10
2022-09-21T03:02:45.615Z,26.75
2022-09-21T03:05:14.910Z,24.42
2022-09-21T03:07:41.934Z,16.02
2022-09-21T03:10:09.353Z,17.70
2022-09-21T03:12:35.997Z,17.45
2022-09-21T03:15:02.865Z,25.73
2022-09-21T03:17:29.388Z,16.25
2022-09-21T03:19:55.922Z,14.38
2022-09-21T03:22:23.184Z,10.57
2022-09-21T03:24:50.387Z,15.82
2022-09-21T03:27:21.434Z,34.03
2022-09-21T03:29:48.176Z,10.60
2022-09-21T03:32:14.769Z,8.68
2022-09-21T03:34:41.758Z,9.15
2022-09-21T03:37:09.960Z,13.02
2022-09-21T03:39:36.803Z,19.48
2022-09-21T03:42:04.268Z,9.32
2022-09-21T03:44:30.898Z,10.38
2022-09-21T03:46:58.264Z,10.40
2022-09-21T03:49:25.241Z,16.25
2022-09-21T03:51:51.836Z,7.50
2022-09-21T03:54:18.413Z,6.40
2022-09-21T03:56:45.077Z,6.68
2022-09-21T03:59:14.361Z,8.68
2022-09-21T04:01:41.915Z,12.90
2022-09-21T04:04:08.625Z,16.38
2022-09-21T04:06:35.264Z,8.85
2022-09-21T04:09:02.634Z,6.93
2022-09-21T04:11:30.189Z,6.40
2022-09-21T04:13:57.417Z,6.25
2022-09-21T04:16:25.508Z,6.28
2022-09-21T04:18:52.323Z,9.27
2022-09-21T04:21:20.124Z,10.07
2022-09-21T04:23:47.177Z,65.40
2022-09-21T04:26:29.716Z,64.93
2022-09-21T04:28:57.163Z,60.00
2022-09-21T04:31:24.998Z,56.65
2022-09-21T04:33:53.576Z,17.85
2022-09-21T04:36:22.069Z,10.07
2022-09-21T04:38:48.924Z,20.90
2022-09-21T04:41:16.458Z,8.60
2022-09-21T04:43:44.943Z,7.65
2022-09-21T04:46:14.871Z,13.30
2022-09-21T04:48:42.115Z,5.03
2022-09-21T04:51:10.007Z,10.73
2022-09-21T04:53:38.373Z,42.63
2022-09-21T04:56:06.407Z,38.97
2022-09-21T04:58:33.553Z,16.00
2022-09-21T05:01:00.371Z,6.50
2022-09-21T05:03:27.150Z,5.10
2022-09-21T05:05:56.528Z,12.05
2022-09-21T05:08:44.044Z,11.68
2022-09-21T05:11:16.494Z,13.10
2022-09-21T05:13:43.171Z,11.27
2022-09-21T05:16:10.046Z,6.13
2022-09-21T05:18:37.301Z,7.00
2022-09-21T05:21:04.589Z,12.45
2022-09-21T05:23:32.100Z,7.40
2022-09-21T05:25:59.764Z,11.45
2022-09-21T05:28:27.235Z,7.72
2022-09-21T05:31:17.621Z,11.68
2022-09-21T05:33:54.908Z,59.30
2022-09-21T05:36:39.853Z,56.85
2022-09-21T05:39:07.305Z,51.45
2022-09-21T05:41:34.414Z,15.85
2022-09-21T05:44:01.613Z,14.32
2022-09-21T05:46:53.986Z,14.45
2022-09-21T05:52:06.349Z,11.00
2022-09-21T05:54:32.869Z,14.50
2022-09-21T05:56:59.380Z,10.45
2022-09-21T05:59:41.822Z,6.32
2022-09-21T06:02:26.604Z,5.40
2022-09-21T06:04:57.660Z,10.88
2022-09-21T06:07:24.397Z,18.90
2022-09-21T06:09:50.994Z,25.80
2022-09-21T06:12:17.774Z,22.55
2022-09-21T06:14:44.500Z,18.55
2022-09-21T06:17:11.058Z,12.40
2022-09-21T06:19:37.561Z,14.05
2022-09-21T06:22:04.152Z,19.02
2022-09-21T06:24:30.687Z,15.80
2022-09-21T06:26:57.215Z,8.35
2022-09-21T06:29:23.901Z,9.18
2022-09-21T06:31:51.396Z,11.77
2022-09-21T06:34:18.658Z,8.60
2022-09-21T06:36:48.039Z,8.82
2022-09-21T06:39:14.656Z,9.80
2022-09-21T06:41:41.314Z,8.10
2022-09-21T06:44:10.046Z,10.27
2022-09-21T06:46:36.810Z,9.73
2022-09-21T06:49:03.564Z,10.57
2022-09-21T06:51:30.120Z,10.10
2022-09-21T06:53:58.312Z,10.55
2022-09-21T06:56:26.132Z,8.00
2022-09-21T06:58:53.053Z,7.45
2022-09-21T07:01:19.980Z,7.97
2022-09-21T07:03:50.920Z,10.57
2022-09-21T07:06:18.577Z,11.30
2022-09-21T07:11:32.478Z,16.17
2022-09-21T07:13:59.825Z,10.73
2022-09-21T07:16:26.427Z,10.13
2022-09-21T07:18:52.971Z,11.60
2022-09-21T07:21:19.549Z,11.90
2022-09-21T07:23:46.066Z,14.10
2022-09-21T07:26:14.072Z,21.15
2022-09-21T07:28:41.036Z,30.20
2022-09-21T07:31:14.045Z,19.50
2022-09-21T07:33:41.792Z,34.22
2022-09-21T07:36:11.874Z,15.90
2022-09-21T07:38:43.341Z,26.17
2022-09-21T07:41:13.074Z,14.02
2022-09-21T07:43:40.446Z,30.52
2022-09-21T07:46:12.171Z,13.98
2022-09-21T07:48:39.514Z,12.35
2022-09-21T07:51:09.147Z,13.05
2022-09-21T07:53:37.749Z,17.30
2022-09-21T07:56:09.427Z,11.10
2022-09-21T07:58:55.444Z,14.30
2022-09-21T08:01:23.011Z,13.30
2022-09-21T08:03:50.904Z,14.73
2022-09-21T08:06:18.318Z,13.15
2022-09-21T08:08:48.300Z,12.77
2022-09-21T08:11:24.445Z,12.55
2022-09-21T08:13:57.465Z,12.52
2022-09-21T08:16:25.609Z,14.05
2022-09-21T08:18:52.385Z,13.88
2022-09-21T08:21:20.605Z,13.23
2022-09-21T08:23:50.564Z,13.88
2022-09-21T08:26:20.629Z,10.38
2022-09-21T08:28:49.877Z,12.30
2022-09-21T08:31:19.365Z,10.05
2022-09-21T08:33:47.077Z,12.15
2022-09-21T08:36:14.134Z,12.32
2022-09-21T08:38:40.789Z,11.30
2022-09-21T08:41:40.950Z,11.23
2022-09-21T08:44:18.120Z,10.38
2022-09-21T08:46:48.746Z,11.15
2022-09-21T08:49:21.520Z,10.32
2022-09-21T08:51:54.255Z,9.73
2022-09-21T08:54:34.615Z,10.45
2022-09-21T08:57:05.285Z,11.43
2022-09-21T08:59:34.307Z,10.65
2022-09-21T09:02:13.208Z,12.10
2022-09-21T09:05:01.265Z,11.60
2022-09-21T09:07:59.546Z,11.25
2022-09-21T09:11:14.359Z,11.27
2022-09-21T09:14:02.665Z,9.57
2022-09-21T09:16:48.080Z,8.05
2022-09-21T09:19:46.110Z,9.55
2022-09-21T09:22:17.936Z,8.80
2022-09-21T09:24:50.053Z,8.85
2022-09-21T09:27:44.741Z,9.30
2022-09-21T09:30:25.662Z,8.43
2022-09-21T09:33:02.329Z,9.18
2022-09-21T09:35:33.388Z,6.90
2022-09-21T09:38:15.956Z,8.32
2022-09-21T09:40:55.983Z,7.30
2022-09-21T09:43:37.815Z,7.20
2022-09-21T09:46:13.563Z,7.03
2022-09-21T09:48:53.948Z,7.32
2022-09-21T09:51:20.922Z,7.00
2022-09-21T09:53:47.463Z,7.03
2022-09-21T09:56:14.936Z,6.80
2022-09-21T09:58:52.640Z,6.38
2022-09-21T10:01:43.416Z,6.07
2022-09-21T10:04:12.751Z,5.82
2022-09-21T10:06:43.806Z,7.28
2022-09-21T10:09:20.300Z,4.45
2022-09-21T10:11:48.102Z,4.22
2022-09-21T10:14:21.737Z,3.35
2022-09-21T10:16:51.992Z,3.83
2022-09-21T10:19:23.217Z,3.70
2022-09-21T10:21:55.977Z,2.88
2022-09-21T10:24:35.638Z,2.30
2022-09-21T10:27:06.898Z,3.65
2022-09-21T10:29:48.210Z,3.17
2022-09-21T10:32:26.586Z,3.50
2022-09-21T10:35:03.441Z,3.25
2022-09-21T10:37:37.465Z,2.00
2022-09-21T10:40:05.297Z,1.70
2022-09-21T10:42:37.374Z,1.85
2022-09-21T10:45:13.970Z,1.50
2022-09-21T10:47:52.910Z,2.60
2022-09-21T10:50:38.598Z,1.30
2022-09-21T10:53:20.531Z,1.17
2022-09-21T10:56:11.790Z,1.20
2022-09-21T10:59:19.694Z,1.48
2022-09-21T11:04:29.322Z,1.55
2022-09-21T11:07:06.455Z,2.00
2022-09-21T11:09:54.457Z,0.95
2022-09-21T11:12:39.363Z,0.90
2022-09-21T11:15:30.851Z,1.10
2022-09-21T11:18:14.618Z,1.58
2022-09-21T11:20:43.860Z,1.20
2022-09-21T11:23:24.889Z,1.10
2022-09-21T11:26:03.583Z,1.00
2022-09-21T11:28:46.397Z,0.73
2022-09-21T11:31:43.976Z,1.27
2022-09-21T11:34:29.509Z,1.17
2022-09-21T11:37:00.642Z,0.80
2022-09-21T11:39:52.109Z,1.38
2022-09-21T11:43:01.733Z,1.42
2022-09-21T11:45:34.565Z,1.90
2022-09-21T11:48:30.208Z,1.00
2022-09-21T11:51:28.114Z,0.70
2022-09-21T11:54:16.670Z,1.10
2022-09-21T11:56:55.342Z,1.35
2022-09-21T11:59:21.916Z,1.30
2022-09-21T12:02:15.405Z,1.52
2022-09-21T12:04:50.096Z,1.73
2022-09-21T12:07:32.579Z,0.95
2022-09-21T12:10:25.433Z,1.05
2022-09-21T12:13:00.202Z,1.58
2022-09-21T12:15:46.232Z,1.10
2022-09-21T12:18:21.466Z,1.23
2022-09-21T12:21:11.656Z,1.27
2022-09-21T12:23:54.431Z,1.33
2022-09-21T12:26:26.247Z,1.45
2022-09-21T12:29:00.764Z,1.40
2022-09-21T12:31:48.103Z,1.20
2022-09-21T12:34:22.620Z,1.42
2022-09-21T12:37:11.000Z,1.00
2022-09-21T12:39:44.582Z,1.30
2022-09-21T12:42:14.166Z,0.77
2022-09-21T12:44:52.757Z,0.70
2022-09-21T12:48:01.338Z,0.80
2022-09-21T12:50:36.309Z,0.85
2022-09-21T12:53:04.229Z,0.77
2022-09-21T12:55:45.594Z,1.10
2022-09-21T12:58:41.304Z,1.23
2022-09-21T13:01:37.660Z,0.73
2022-09-21T13:04:41.797Z,0.70
2022-09-21T13:07:18.019Z,1.13
2022-09-21T13:09:46.917Z,0.50
2022-09-21T13:12:13.950Z,0.95
2022-09-21T13:14:48.847Z,0.57
2022-09-21T13:17:29.339Z,1.00
2022-09-21T13:20:00.993Z,0.60
2022-09-21T13:22:32.676Z,0.75
2022-09-21T13:25:18.757Z,0.60
2022-09-21T13:28:02.275Z,0.75
2022-09-21T13:30:32.050Z,0.60
2022-09-21T13:32:59.322Z,0.60
2022-09-21T13:35:44.322Z,0.75
2022-09-21T13:38:32.300Z,0.50
2022-09-21T13:41:05.108Z,1.02
2022-09-21T13:44:01.104Z,0.65
2022-09-21T13:46:37.019Z,1.08
2022-09-21T13:49:15.554Z,0.47
2022-09-21T13:51:51.109Z,0.50
2022-09-21T13:54:22.143Z,0.47
2022-09-21T13:57:08.458Z,0.70
2022-09-21T13:59:38.832Z,0.70
2022-09-21T14:02:37.760Z,0.45
2022-09-21T14:05:18.372Z,0.70
2022-09-21T14:07:48.179Z,0.47
2022-09-21T14:10:21.270Z,0.60
2022-09-21T14:12:48.189Z,0.70
2022-09-21T14:15:19.498Z,0.47
2022-09-21T14:18:15.735Z,0.60
2022-09-21T14:21:11.113Z,0.70
2022-09-21T14:23:38.907Z,0.40
2022-09-21T14:26:35.644Z,0.55
2022-09-21T14:29:19.486Z,0.40
2022-09-21T14:31:48.168Z,0.30
2022-09-21T14:34:23.898Z,0.52
2022-09-21T14:36:54.842Z,0.50
2022-09-21T14:39:32.068Z,0.30
2022-09-21T14:42:03.668Z,0.60
2022-09-21T14:44:32.858Z,0.43
2022-09-21T14:47:05.926Z,0.30
2022-09-21T14:49:57.493Z,0.40
2022-09-21T14:52:33.121Z,0.40
2022-09-21T14:55:17.704Z,0.68
2022-09-21T14:58:03.067Z,0.60
2022-09-21T15:00:42.938Z,0.22
2022-09-21T15:03:28.045Z,0.35
2022-09-21T15:06:39.595Z,0.40
2022-09-21T15:09:58.758Z,0.40
2022-09-21T15:12:58.169Z,0.45
2022-09-21T15:15:57.351Z,0.50
2022-09-21T15:18:25.800Z,0.30
2022-09-21T15:21:04.043Z,0.50
2022-09-21T15:23:40.992Z,0.50
2022-09-21T15:26:24.581Z,0.95
2022-09-21T15:29:09.187Z,0.77
2022-09-21T15:31:40.222Z,0.73
2022-09-21T15:34:09.144Z,0.50
2022-09-21T15:36:39.466Z,0.70
2022-09-21T15:39:07.277Z,0.57
2022-09-21T15:41:40.210Z,0.63
2022-09-21T15:44:33.417Z,0.70
2022-09-21T15:47:03.095Z,0.52
2022-09-21T15:49:30.350Z,0.57
2022-09-21T15:52:02.925Z,0.40
2022-09-21T15:54:32.246Z,0.40
2022-09-21T15:57:04.661Z,0.60
2022-09-21T15:59:34.628Z,0.47
2022-09-21T16:02:11.951Z,0.32
2022-09-21T16:04:49.290Z,0.60
2022-09-21T16:07:33.074Z,0.90
2022-09-21T16:10:00.034Z,0.28
2022-09-21T16:12:26.527Z,0.60
2022-09-21T16:14:53.920Z,0.60
2022-09-21T16:17:26.427Z,0.63
2022-09-21T16:19:55.682Z,0.60
2022-09-21T16:22:29.425Z,0.60
2022-09-21T16:24:59.775Z,0.57
2022-09-21T16:27:28.819Z,0.75
2022-09-21T16:29:57.341Z,0.70
2022-09-21T16:32:34.329Z,0.45
2022-09-21T16:35:27.326Z,0.52
2022-09-21T16:37:58.876Z,0.43
2022-09-21T16:40:27.195Z,0.60
2022-09-21T16:42:54.255Z,0.50
2022-09-21T16:45:32.396Z,0.70
2022-09-21T16:47:59.662Z,0.70
2022-09-21T16:50:26.333Z,0.57
2022-09-21T16:52:52.844Z,0.38
2022-09-21T16:55:26.922Z,0.38
2022-09-21T16:57:55.989Z,0.30
2022-09-21T17:00:22.831Z,0.60
2022-09-21T17:02:49.605Z,0.50
2022-09-21T17:05:19.385Z,0.60
2022-09-21T17:07:57.125Z,0.95
2022-09-21T17:10:34.667Z,0.52
2022-09-21T17:13:01.295Z,0.47
2022-09-21T17:15:29.102Z,0.65
2022-09-21T17:17:58.952Z,0.45
2022-09-21T17:20:34.538Z,0.50
2022-09-21T17:23:03.190Z,0.70
2022-09-21T17:25:31.042Z,0.70
2022-09-21T17:27:58.159Z,0.85
2022-09-21T17:30:25.974Z,1.08
2022-09-21T17:32:53.267Z,1.17
2022-09-21T17:35:31.766Z,1.10
2022-09-21T17:37:59.173Z,1.00
2022-09-21T17:40:27.307Z,1.10
2022-09-21T17:43:03.304Z,1.15
2022-09-21T17:45:38.934Z,1.08
2022-09-21T17:48:06.003Z,0.73
2022-09-21T17:50:32.711Z,0.82
2022-09-21T17:53:37.785Z,1.17
2022-09-21T17:56:37.669Z,0.90
2022-09-21T17:59:05.741Z,1.17
2022-09-21T18:01:37.854Z,1.15
2022-09-21T18:04:05.584Z,1.50
2022-09-21T18:06:32.974Z,1.27
2022-09-21T18:09:00.886Z,1.15
2022-09-21T18:11:42.264Z,1.77
2022-09-21T18:14:30.270Z,1.88
2022-09-21T18:17:16.803Z,1.10
2022-09-21T18:20:02.291Z,0.80
2022-09-21T18:22:45.127Z,1.40
2022-09-21T18:25:18.209Z,1.83
2022-09-21T18:27:48.689Z,1.93
2022-09-21T18:30:17.501Z,1.55
2022-09-21T18:33:10.663Z,2.17
2022-09-21T18:35:37.901Z,2.22
2022-09-21T18:38:27.325Z,1.77
2022-09-21T18:41:32.413Z,1.27
2022-09-21T18:44:34.514Z,1.33
2022-09-21T18:47:20.475Z,1.80
2022-09-21T18:50:15.858Z,1.67
2022-09-21T18:53:01.378Z,1.35
2022-09-21T18:55:32.264Z,1.40
2022-09-21T18:58:00.711Z,1.50
2022-09-21T19:00:32.497Z,1.63
2022-09-21T19:03:16.354Z,2.28
2022-09-21T19:06:08.028Z,5.28
2022-09-21T19:08:43.496Z,6.70
2022-09-21T19:11:32.470Z,7.43
2022-09-21T19:14:25.028Z,3.72
2022-09-21T19:17:19.515Z,3.17
2022-09-21T19:22:26.778Z,12.02
2022-09-21T19:24:57.063Z,8.02
2022-09-21T19:27:40.344Z,6.68
2022-09-21T19:30:13.090Z,5.53
2022-09-21T19:32:48.472Z,4.72
2022-09-21T19:35:27.198Z,4.93
2022-09-21T19:37:56.987Z,6.07
2022-09-21T19:40:32.684Z,7.00
2022-09-21T19:43:20.062Z,6.78
2022-09-21T19:46:17.574Z,15.90
2022-09-21T19:48:50.872Z,27.58
2022-09-21T19:51:21.990Z,25.48
2022-09-21T19:54:15.352Z,29.40
2022-09-21T19:57:08.964Z,45.88
2022-09-21T19:59:53.698Z,49.53
2022-09-21T20:02:35.640Z,34.72
2022-09-21T20:05:13.356Z,27.45
2022-09-21T20:07:45.523Z,17.13
2022-09-21T20:10:35.247Z,12.55
2022-09-21T20:13:12.511Z,7.55
2022-09-21T20:15:50.811Z,7.80
2022-09-21T20:18:37.751Z,12.95
2022-09-21T20:21:19.629Z,13.85
2022-09-21T20:23:51.500Z,12.98
2022-09-21T20:26:24.994Z,11.07
2022-09-21T20:28:52.752Z,7.38
2022-09-21T20:31:24.467Z,8.10
2022-09-21T20:33:51.480Z,11.80
2022-09-21T20:36:18.054Z,15.50
2022-09-21T20:38:44.585Z,16.95
2022-09-21T20:41:16.495Z,14.32
2022-09-21T20:43:43.431Z,13.90
2022-09-21T20:46:11.035Z,11.85
2022-09-21T20:48:38.437Z,10.45
2022-09-21T20:51:06.231Z,9.43
2022-09-21T20:53:34.225Z,11.80
2022-09-21T20:56:02.017Z,12.32
2022-09-21T20:58:30.026Z,13.23
2022-09-21T21:01:03.019Z,10.43
2022-09-21T21:03:29.617Z,7.57
2022-09-21T21:06:14.054Z,8.07
2022-09-21T21:08:40.740Z,8.55
2022-09-21T21:11:07.528Z,6.85
2022-09-21T21:13:34.253Z,5.38
2022-09-21T21:16:00.917Z,5.72
2022-09-21T21:18:27.753Z,5.72
2022-09-21T21:20:54.388Z,5.28
2022-09-21T21:23:20.961Z,4.90
2022-09-21T21:25:48.088Z,3.67
2022-09-21T21:28:14.654Z,3.20
2022-09-21T21:30:41.320Z,3.10
2022-09-21T21:33:07.836Z,3.55
2022-09-21T21:35:37.502Z,2.60
2022-09-21T21:38:04.028Z,3.30
2022-09-21T21:40:30.647Z,4.05
2022-09-21T21:42:57.311Z,2.88
2022-09-21T21:45:23.953Z,3.35
2022-09-21T21:47:50.477Z,3.72
2022-09-21T21:50:17.012Z,3.10
2022-09-21T21:52:45.240Z,3.08
2022-09-21T21:55:12.150Z,3.70
2022-09-21T21:57:38.697Z,7.10
2022-09-21T22:00:06.209Z,6.90
2022-09-21T22:02:33.007Z,6.63
2022-09-21T22:04:59.614Z,5.20
2022-09-21T22:07:26.170Z,4.65
2022-09-21T22:09:52.806Z,4.10
2022-09-21T22:12:19.650Z,5.88
2022-09-21T22:14:47.720Z,9.32
2022-09-21T22:17:14.495Z,8.15
2022-09-21T22:19:41.057Z,4.22
2022-09-21T22:22:07.581Z,4.07
2022-09-21T22:24:34.334Z,4.28
2022-09-21T22:27:01.018Z,11.32
2022-09-21T22:29:27.552Z,25.55
2022-09-21T22:31:55.258Z,20.40
2022-09-21T22:34:22.149Z,12.38
2022-09-21T22:36:48.707Z,11.70
2022-09-21T22:39:15.252Z,11.15
2022-09-21T22:41:43.019Z,10.32
2022-09-21T22:44:10.764Z,8.88
2022-09-21T22:46:38.608Z,8.05
2022-09-21T22:49:05.709Z,6.30
2022-09-21T22:51:32.328Z,5.78
2022-09-21T22:53:59.037Z,5.55
2022-09-21T22:56:28.325Z,5.50
2022-09-21T22:58:57.630Z,5.57
2022-09-21T23:01:34.179Z,4.82
2022-09-21T23:04:04.009Z,7.13
2022-09-21T23:06:33.466Z,7.90
2022-09-21T23:09:02.158Z,6.82
2022-09-21T23:11:34.320Z,7.57
2022-09-21T23:14:01.425Z,7.00
2022-09-21T23:16:29.268Z,5.85
2022-09-21T23:18:56.724Z,5.35
2022-09-21T23:21:25.409Z,6.53
2022-09-21T23:23:57.279Z,7.78
2022-09-21T23:26:25.070Z,6.93
2022-09-21T23:28:54.360Z,6.05
2022-09-21T23:31:21.710Z,4.55
2022-09-21T23:33:50.369Z,4.07
2022-09-21T23:36:22.133Z,3.75
2022-09-21T23:38:49.721Z,3.38
2022-09-21T23:41:19.823Z,3.50
2022-09-21T23:43:47.396Z,4.10
2022-09-21T23:46:16.607Z,4.30
2022-09-21T23:48:43.817Z,3.50
2022-09-21T23:51:11.412Z,3.70
2022-09-21T23:53:38.436Z,3.92
2022-09-21T23:56:06.497Z,4.68
2022-09-21T23:58:33.532Z,5.13
